Time;durP1;ratioP1;P1;durP2;ratioP2;P2;SDS_P1;SDS_P2;PMS_P1;PMS_P2;Temp;Humidity;BMP_temperature;BMP_pressure;BME280_temperature;BME280_humidity;BME280_pressure;Samples;Min_cycle;Max_cycle;Signal;HPM_P1;HPM_P2
2022/06/11 00:00:01;;;;;;;6.30;2.35;;;;;;;;;;5054598;28;20025;-70
2022/06/11 00:02:27;;;;;;;8.20;2.60;;;;;;;;;;5054221;28;20384;-70
2022/06/11 00:04:53;;;;;;;9.02;2.97;;;;;;;;;;5049962;28;20036;-70
2022/06/11 00:07:21;;;;;;;8.38;2.60;;;;;;;;;;5062465;28;20037;-69
2022/06/11 00:09:47;;;;;;;9.43;2.72;;;;;;;;;;5035998;28;20036;-69
2022/06/11 00:12:14;;;;;;;9.93;3.00;;;;;;;;;;5063341;28;20025;-69
2022/06/11 00:14:40;;;;;;;8.05;2.42;;;;;;;;;;5048206;28;20037;-69
2022/06/11 00:17:07;;;;;;;7.03;2.33;;;;;;;;;;5078624;28;20083;-69
2022/06/11 00:19:34;;;;;;;10.07;2.10;;;;;;;;;;5074198;28;20025;-69
2022/06/11 00:22:00;;;;;;;6.80;1.60;;;;;;;;;;5077833;28;20029;-69
2022/06/11 00:24:27;;;;;;;11.80;1.90;;;;;;;;;;5072735;28;20044;-70
2022/06/11 00:26:55;;;;;;;13.40;2.20;;;;;;;;;;5071793;28;20534;-70
2022/06/11 00:29:22;;;;;;;10.40;2.05;;;;;;;;;;5061505;28;20056;-70
2022/06/11 00:31:48;;;;;;;10.18;2.55;;;;;;;;;;5080010;28;20081;-70
2022/06/11 00:34:14;;;;;;;14.43;2.45;;;;;;;;;;5073729;28;20635;-70
2022/06/11 00:36:42;;;;;;;12.60;2.65;;;;;;;;;;5066755;28;20068;-70
2022/06/11 00:39:09;;;;;;;12.32;1.75;;;;;;;;;;5068369;28;20040;-70
2022/06/11 00:41:37;;;;;;;8.68;2.15;;;;;;;;;;5057188;28;20038;-69
2022/06/11 00:44:04;;;;;;;13.85;2.85;;;;;;;;;;5053527;28;20109;-69
2022/06/11 00:46:37;;;;;;;7.30;1.92;;;;;;;;;;5072752;28;20468;-69
2022/06/11 00:49:07;;;;;;;12.13;2.65;;;;;;;;;;5078306;28;20111;-69
2022/06/11 00:51:33;;;;;;;11.55;2.22;;;;;;;;;;5090474;28;20125;-68
2022/06/11 00:54:01;;;;;;;10.23;1.80;;;;;;;;;;5074737;28;20036;-69
2022/06/11 00:56:31;;;;;;;12.82;2.15;;;;;;;;;;5075374;28;20361;-69
2022/06/11 00:59:01;;;;;;;9.80;2.60;;;;;;;;;;5045363;28;20032;-69
2022/06/11 01:01:28;;;;;;;11.60;2.47;;;;;;;;;;5080710;28;20451;-69
2022/06/11 01:03:57;;;;;;;7.82;2.00;;;;;;;;;;5072896;28;20044;-69
2022/06/11 01:06:51;;;;;;;14.30;2.97;;;;;;;;;;5069658;28;20033;-69
2022/06/11 01:09:32;;;;;;;11.98;2.40;;;;;;;;;;5085005;28;20046;-70
2022/06/11 01:12:18;;;;;;;9.10;2.00;;;;;;;;;;5060475;28;20024;-70
2022/06/11 01:14:47;;;;;;;13.50;2.75;;;;;;;;;;5057845;28;20055;-70
2022/06/11 01:17:13;;;;;;;11.80;2.13;;;;;;;;;;5068294;28;20039;-70
2022/06/11 01:20:00;;;;;;;13.90;2.35;;;;;;;;;;5070426;28;20033;-70
2022/06/11 01:22:45;;;;;;;20.05;2.83;;;;;;;;;;5055845;28;20087;-70
2022/06/11 01:25:20;;;;;;;8.82;1.90;;;;;;;;;;5073010;28;20029;-70
2022/06/11 01:27:46;;;;;;;17.33;2.25;;;;;;;;;;5070726;28;20032;-70
2022/06/11 01:30:18;;;;;;;11.38;2.58;;;;;;;;;;5079027;28;20029;-70
2022/06/11 01:32:53;;;;;;;10.93;2.30;;;;;;;;;;5058658;28;20031;-70
2022/06/11 01:35:19;;;;;;;11.80;2.50;;;;;;;;;;5055178;28;20496;-70
2022/06/11 01:37:55;;;;;;;8.90;1.92;;;;;;;;;;5056151;28;20025;-70
2022/06/11 01:40:26;;;;;;;15.30;1.98;;;;;;;;;;5084337;28;20059;-70
2022/06/11 01:42:56;;;;;;;12.55;2.05;;;;;;;;;;5066663;28;20085;-70
2022/06/11 01:45:25;;;;;;;13.73;2.35;;;;;;;;;;5081478;28;20472;-70
2022/06/11 01:47:52;;;;;;;13.95;3.03;;;;;;;;;;5069762;28;20028;-70
2022/06/11 01:50:19;;;;;;;14.98;3.00;;;;;;;;;;5082078;28;20031;-70
2022/06/11 01:52:58;;;;;;;12.57;2.78;;;;;;;;;;5073062;28;20032;-70
2022/06/11 01:55:43;;;;;;;12.98;2.75;;;;;;;;;;5045811;28;20025;-70
2022/06/11 01:58:28;;;;;;;14.90;2.60;;;;;;;;;;5068949;28;20036;-70
2022/06/11 02:00:54;;;;;;;13.57;2.67;;;;;;;;;;5080833;28;20117;-70
2022/06/11 02:03:34;;;;;;;9.50;2.20;;;;;;;;;;5070689;28;20055;-70
2022/06/11 02:06:16;;;;;;;19.95;3.25;;;;;;;;;;5073954;28;20033;-70
2022/06/11 02:08:45;;;;;;;16.67;2.67;;;;;;;;;;5062401;28;20032;-70
2022/06/11 02:11:18;;;;;;;14.88;2.50;;;;;;;;;;5088781;28;20032;-70
2022/06/11 02:13:50;;;;;;;9.52;2.20;;;;;;;;;;5080094;28;20051;-70
2022/06/11 02:16:16;;;;;;;;;;;;;;;;;;5064814;28;20045;-70
2022/06/11 02:18:44;;;;;;;11.35;2.60;;;;;;;;;;5059873;28;19919;-70
2022/06/11 02:21:12;;;;;;;21.55;2.85;;;;;;;;;;5076706;28;20413;-70
2022/06/11 02:23:49;;;;;;;18.27;2.65;;;;;;;;;;5053567;28;20036;-70
2022/06/11 02:26:19;;;;;;;13.43;2.47;;;;;;;;;;5068652;28;20040;-70
2022/06/11 02:28:45;;;;;;;15.52;2.63;;;;;;;;;;5071871;28;20480;-70
2022/06/11 02:31:12;;;;;;;11.88;3.00;;;;;;;;;;5079710;28;20028;-70
2022/06/11 02:33:38;;;;;;;9.93;2.80;;;;;;;;;;5066618;28;20025;-70
2022/06/11 02:36:14;;;;;;;16.08;3.00;;;;;;;;;;5051957;28;20499;-70
2022/06/11 02:38:40;;;;;;;14.77;2.88;;;;;;;;;;5054536;28;20041;-70
2022/06/11 02:41:12;;;;;;;13.50;2.47;;;;;;;;;;5069889;28;20078;-70
2022/06/11 02:43:38;;;;;;;17.63;3.50;;;;;;;;;;5075011;28;20096;-69
2022/06/11 02:48:51;;;;;;;17.55;3.50;;;;;;;;;;5079114;28;20186;-70
2022/06/11 02:51:18;;;;;;;17.92;2.83;;;;;;;;;;5086296;28;20035;-70
2022/06/11 02:53:44;;;;;;;10.10;2.92;;;;;;;;;;5069212;28;20037;-70
2022/06/11 02:56:11;;;;;;;13.90;2.38;;;;;;;;;;5078467;28;20109;-70
2022/06/11 02:58:37;;;;;;;14.73;2.95;;;;;;;;;;5069970;28;20123;-70
2022/06/11 03:01:03;;;;;;;13.57;2.60;;;;;;;;;;5071879;28;20047;-70
2022/06/11 03:03:29;;;;;;;16.40;2.75;;;;;;;;;;5085198;28;20024;-70
2022/06/11 03:05:55;;;;;;;11.13;2.83;;;;;;;;;;5070052;28;20095;-70
2022/06/11 03:08:22;;;;;;;13.98;3.60;;;;;;;;;;5073842;28;20033;-70
2022/06/11 03:10:54;;;;;;;12.70;3.38;;;;;;;;;;5050391;28;20124;-70
2022/06/11 03:13:20;;;;;;;;;;;;;;;;;;5046267;28;20025;-70
2022/06/11 03:15:46;;;;;;;13.32;2.70;;;;;;;;;;5074715;28;20386;-70
2022/06/11 03:18:13;;;;;;;12.35;2.67;;;;;;;;;;5088212;28;20039;-70
2022/06/11 03:20:40;;;;;;;20.67;3.15;;;;;;;;;;5076717;28;20020;-70
2022/06/11 03:23:06;;;;;;;12.40;2.75;;;;;;;;;;5070170;28;20025;-70
2022/06/11 03:25:33;;;;;;;13.85;3.50;;;;;;;;;;5074991;28;20028;-70
2022/06/11 03:27:59;;;;;;;20.38;3.55;;;;;;;;;;5087829;28;20031;-70
2022/06/11 03:30:26;;;;;;;10.18;2.72;;;;;;;;;;5073609;28;20041;-70
2022/06/11 03:32:52;;;;;;;23.77;3.40;;;;;;;;;;5064665;28;20083;-70
2022/06/11 03:35:18;;;;;;;16.48;3.78;;;;;;;;;;5073330;28;20074;-70
2022/06/11 03:37:45;;;;;;;15.75;2.78;;;;;;;;;;5081938;28;20408;-69
2022/06/11 03:40:11;;;;;;;11.63;2.45;;;;;;;;;;5071631;28;20024;-69
2022/06/11 03:42:37;;;;;;;19.17;3.60;;;;;;;;;;5062456;28;20089;-69
2022/06/11 03:45:05;;;;;;;23.05;2.80;;;;;;;;;;5076875;28;20383;-69
2022/06/11 03:47:32;;;;;;;8.27;2.65;;;;;;;;;;5077832;28;20055;-70
2022/06/11 03:49:58;;;;;;;17.75;2.72;;;;;;;;;;5088217;28;20028;-70
2022/06/11 03:52:27;;;;;;;15.10;2.63;;;;;;;;;;5074107;28;20032;-70
2022/06/11 03:54:55;;;;;;;11.52;2.60;;;;;;;;;;5043727;28;20119;-70
2022/06/11 03:57:21;;;;;;;18.92;3.03;;;;;;;;;;5062576;28;20487;-69
2022/06/11 03:59:47;;;;;;;17.85;3.85;;;;;;;;;;5090991;28;20040;-69
2022/06/11 04:02:13;;;;;;;15.98;3.35;;;;;;;;;;5083028;28;20044;-70
2022/06/11 04:04:39;;;;;;;16.67;4.32;;;;;;;;;;5074023;28;20458;-70
2022/06/11 04:07:06;;;;;;;23.73;3.70;;;;;;;;;;5057929;28;20452;-70
2022/06/11 04:09:38;;;;;;;18.85;3.72;;;;;;;;;;5072847;28;20082;-70
2022/06/11 04:12:05;;;;;;;18.92;3.50;;;;;;;;;;5088729;28;20031;-70
2022/06/11 04:14:31;;;;;;;20.50;3.40;;;;;;;;;;5068788;28;20021;-70
2022/06/11 04:16:59;;;;;;;15.77;2.95;;;;;;;;;;5068562;28;20032;-70
2022/06/11 04:19:27;;;;;;;17.70;3.67;;;;;;;;;;5081446;28;20040;-70
2022/06/11 04:21:54;;;;;;;17.42;3.03;;;;;;;;;;5045764;28;20467;-70
2022/06/11 04:24:20;;;;;;;12.35;2.53;;;;;;;;;;5080513;28;20032;-69
2022/06/11 04:26:49;;;;;;;17.85;3.17;;;;;;;;;;5072460;28;20102;-70
2022/06/11 04:29:18;;;;;;;17.85;3.42;;;;;;;;;;5054279;28;20039;-70
2022/06/11 04:31:45;;;;;;;17.77;3.65;;;;;;;;;;5073454;28;20039;-70
2022/06/11 04:34:11;;;;;;;23.98;4.65;;;;;;;;;;5077065;28;20028;-70
2022/06/11 04:36:38;;;;;;;17.30;3.40;;;;;;;;;;5073071;28;20408;-70
2022/06/11 04:39:05;;;;;;;18.60;3.80;;;;;;;;;;5073002;28;20025;-70
2022/06/11 04:41:31;;;;;;;30.73;4.68;;;;;;;;;;5072947;28;20028;-70
2022/06/11 04:43:57;;;;;;;19.02;3.47;;;;;;;;;;5070805;28;20036;-70
2022/06/11 04:46:23;;;;;;;25.05;4.97;;;;;;;;;;5074352;28;20064;-70
2022/06/11 04:48:50;;;;;;;25.65;4.82;;;;;;;;;;5078608;28;20051;-70
2022/06/11 04:51:16;;;;;;;30.92;4.85;;;;;;;;;;5078990;28;20028;-70
2022/06/11 04:53:44;;;;;;;20.67;4.28;;;;;;;;;;5083966;28;20464;-72
2022/06/11 04:56:11;;;;;;;26.88;4.43;;;;;;;;;;5045699;28;21136;-71
2022/06/11 04:58:37;;;;;;;26.85;5.50;;;;;;;;;;5062125;28;20020;-72
2022/06/11 05:01:03;;;;;;;32.97;5.32;;;;;;;;;;5069909;28;20483;-72
2022/06/11 05:03:29;;;;;;;28.95;5.10;;;;;;;;;;5069520;28;20028;-72
2022/06/11 05:05:55;;;;;;;29.15;5.97;;;;;;;;;;5071098;28;20036;-73
2022/06/11 05:08:21;;;;;;;27.27;4.20;;;;;;;;;;5051451;28;20029;-73
2022/06/11 05:10:47;;;;;;;24.02;4.93;;;;;;;;;;5071129;28;20048;-71
2022/06/11 05:13:13;;;;;;;31.20;6.07;;;;;;;;;;5058477;28;20029;-73
2022/06/11 05:15:44;;;;;;;31.08;5.30;;;;;;;;;;5046528;28;20051;-71
2022/06/11 05:18:10;;;;;;;26.27;5.63;;;;;;;;;;5078039;28;20033;-72
2022/06/11 05:20:36;;;;;;;26.63;4.78;;;;;;;;;;5072568;28;20056;-72
2022/06/11 05:23:03;;;;;;;25.02;5.28;;;;;;;;;;5063461;28;20041;-72
2022/06/11 05:25:35;;;;;;;24.15;5.55;;;;;;;;;;5085944;28;20040;-72
2022/06/11 05:28:02;;;;;;;24.25;5.28;;;;;;;;;;5069795;28;20800;-72
2022/06/11 05:30:30;;;;;;;29.33;6.45;;;;;;;;;;5077839;28;20028;-72
2022/06/11 05:32:56;;;;;;;24.95;5.22;;;;;;;;;;5054608;28;20406;-72
2022/06/11 05:35:24;;;;;;;31.52;5.38;;;;;;;;;;5071501;28;20472;-72
2022/06/11 05:37:52;;;;;;;31.23;7.22;;;;;;;;;;5060940;28;20037;-69
2022/06/11 05:40:21;;;;;;;66.03;32.75;;;;;;;;;;5086720;28;20024;-70
2022/06/11 05:42:50;;;;;;;27.15;5.88;;;;;;;;;;5084007;28;20032;-70
2022/06/11 05:45:21;;;;;;;31.55;7.18;;;;;;;;;;5076648;28;20044;-72
2022/06/11 05:47:47;;;;;;;27.13;5.45;;;;;;;;;;5069648;28;20048;-71
2022/06/11 05:50:15;;;;;;;28.75;6.50;;;;;;;;;;5077274;28;20039;-71
2022/06/11 05:52:45;;;;;;;26.80;5.63;;;;;;;;;;5069986;28;20024;-71
2022/06/11 05:55:22;;;;;;;31.13;5.95;;;;;;;;;;5066915;28;20028;-70
2022/06/11 05:57:49;;;;;;;29.77;6.07;;;;;;;;;;5058436;28;20111;-70
2022/06/11 06:00:17;;;;;;;31.65;6.85;;;;;;;;;;5069522;28;20070;-70
2022/06/11 06:02:44;;;;;;;27.92;4.82;;;;;;;;;;5070988;28;20060;-70
2022/06/11 06:05:11;;;;;;;36.35;5.55;;;;;;;;;;5080171;28;20027;-71
2022/06/11 06:07:37;;;;;;;26.27;5.25;;;;;;;;;;5071030;28;20031;-70
2022/06/11 06:10:04;;;;;;;28.70;5.95;;;;;;;;;;5075729;28;20036;-70
2022/06/11 06:12:33;;;;;;;25.85;4.95;;;;;;;;;;5053601;28;20045;-70
2022/06/11 06:15:07;;;;;;;35.95;5.68;;;;;;;;;;5070117;28;20122;-71
2022/06/11 06:17:33;;;;;;;35.35;6.15;;;;;;;;;;5068324;28;20435;-71
2022/06/11 06:19:59;;;;;;;32.38;7.03;;;;;;;;;;5049254;28;20111;-72
2022/06/11 06:22:25;;;;;;;30.13;6.07;;;;;;;;;;5071090;28;20032;-72
2022/06/11 06:24:51;;;;;;;28.88;5.50;;;;;;;;;;5070730;28;20032;-73
2022/06/11 06:27:17;;;;;;;19.33;4.45;;;;;;;;;;5077748;28;20082;-72
2022/06/11 06:29:43;;;;;;;33.60;5.18;;;;;;;;;;5068010;28;20081;-72
2022/06/11 06:32:09;;;;;;;25.20;5.35;;;;;;;;;;5082813;28;20040;-73
2022/06/11 06:34:35;;;;;;;25.77;5.10;;;;;;;;;;5078384;28;20032;-73
2022/06/11 06:37:01;;;;;;;23.08;4.68;;;;;;;;;;5064286;28;20035;-73
2022/06/11 06:39:27;;;;;;;37.67;5.90;;;;;;;;;;5071189;28;20114;-73
2022/06/11 06:41:54;;;;;;;31.52;6.10;;;;;;;;;;5070372;28;20048;-70
2022/06/11 06:44:20;;;;;;;31.00;8.90;;;;;;;;;;5064348;28;20024;-73
2022/06/11 06:46:46;;;;;;;24.65;5.15;;;;;;;;;;5071365;28;20029;-71
2022/06/11 06:49:12;;;;;;;27.45;5.53;;;;;;;;;;5071167;28;20109;-70
2022/06/11 06:51:39;;;;;;;22.05;5.50;;;;;;;;;;5074854;28;20027;-70
2022/06/11 06:54:05;;;;;;;27.30;5.95;;;;;;;;;;5077468;28;20035;-70
2022/06/11 06:56:33;;;;;;;22.92;5.35;;;;;;;;;;5073909;28;20078;-70
2022/06/11 06:59:00;;;;;;;21.63;5.32;;;;;;;;;;5067551;28;20032;-70
2022/06/11 07:01:26;;;;;;;24.63;5.55;;;;;;;;;;5039553;28;20100;-70
2022/06/11 07:03:53;;;;;;;25.02;4.07;;;;;;;;;;5059833;28;20037;-70
2022/06/11 07:06:19;;;;;;;21.88;5.53;;;;;;;;;;5068509;28;20074;-72
2022/06/11 07:08:45;;;;;;;19.70;4.43;;;;;;;;;;5061417;28;20563;-71
2022/06/11 07:11:11;;;;;;;24.23;5.32;;;;;;;;;;5061966;28;20492;-71
2022/06/11 07:13:37;;;;;;;20.50;5.05;;;;;;;;;;5060140;28;20025;-70
2022/06/11 07:16:04;;;;;;;24.48;4.40;;;;;;;;;;5059405;28;20061;-70
2022/06/11 07:18:38;;;;;;;23.90;5.10;;;;;;;;;;5051328;28;20154;-70
2022/06/11 07:21:07;;;;;;;19.85;4.82;;;;;;;;;;5051641;28;20060;-70
2022/06/11 07:23:42;;;;;;;20.00;4.70;;;;;;;;;;5053415;28;20385;-71
2022/06/11 07:26:10;;;;;;;27.55;5.03;;;;;;;;;;5069587;28;20029;-70
2022/06/11 07:28:51;;;;;;;20.38;4.88;;;;;;;;;;5068588;28;20036;-70
2022/06/11 07:31:17;;;;;;;20.25;4.68;;;;;;;;;;5069816;28;20036;-70
2022/06/11 07:33:44;;;;;;;28.00;5.20;;;;;;;;;;5057533;28;20515;-70
2022/06/11 07:36:12;;;;;;;24.30;5.35;;;;;;;;;;5067839;28;20032;-70
2022/06/11 07:38:38;;;;;;;15.43;3.65;;;;;;;;;;5069684;28;20036;-70
2022/06/11 07:41:04;;;;;;;25.50;5.35;;;;;;;;;;5068305;28;20052;-71
2022/06/11 07:43:31;;;;;;;25.05;5.00;;;;;;;;;;5071241;28;20041;-71
2022/06/11 07:45:57;;;;;;;21.60;4.57;;;;;;;;;;5065336;28;20044;-71
2022/06/11 07:48:23;;;;;;;18.92;4.38;;;;;;;;;;5045446;28;20477;-71
2022/06/11 07:50:50;;;;;;;19.92;4.55;;;;;;;;;;5062318;28;20608;-71
2022/06/11 07:53:17;;;;;;;20.08;4.13;;;;;;;;;;5067931;28;20476;-71
2022/06/11 07:55:44;;;;;;;15.57;4.15;;;;;;;;;;5074204;28;20491;-71
2022/06/11 07:58:11;;;;;;;15.52;3.53;;;;;;;;;;5056790;28;20480;-71
2022/06/11 08:00:42;;;;;;;23.42;5.03;;;;;;;;;;5050846;28;20033;-71
2022/06/11 08:03:08;;;;;;;17.98;4.03;;;;;;;;;;5073156;28;20427;-71
2022/06/11 08:05:34;;;;;;;15.73;3.97;;;;;;;;;;5071781;28;20085;-71
2022/06/11 08:08:01;;;;;;;18.95;5.05;;;;;;;;;;5069968;28;20039;-71
2022/06/11 08:10:28;;;;;;;23.50;5.28;;;;;;;;;;5049397;28;20460;-71
2022/06/11 08:12:54;;;;;;;21.02;4.15;;;;;;;;;;5073836;28;20074;-71
2022/06/11 08:15:21;;;;;;;20.45;5.35;;;;;;;;;;5070032;28;20419;-71
2022/06/11 08:17:47;;;;;;;18.50;4.60;;;;;;;;;;5063082;28;20107;-71
2022/06/11 08:20:15;;;;;;;18.98;4.95;;;;;;;;;;5072933;28;20078;-71
2022/06/11 08:22:41;;;;;;;16.60;4.15;;;;;;;;;;5071720;28;20132;-71
2022/06/11 08:25:08;;;;;;;21.38;4.85;;;;;;;;;;5070086;28;20021;-71
2022/06/11 08:27:34;;;;;;;22.10;4.18;;;;;;;;;;5053710;28;20021;-71
2022/06/11 08:30:00;;;;;;;18.13;4.45;;;;;;;;;;5052876;28;20507;-71
2022/06/11 08:32:26;;;;;;;17.02;3.63;;;;;;;;;;5065983;28;20033;-71
2022/06/11 08:34:52;;;;;;;13.02;3.28;;;;;;;;;;5054168;28;20029;-71
2022/06/11 08:37:19;;;;;;;18.83;3.67;;;;;;;;;;5073709;28;20029;-71
2022/06/11 08:39:45;;;;;;;18.60;3.78;;;;;;;;;;5071655;28;20032;-71
2022/06/11 08:42:33;;;;;;;14.27;3.10;;;;;;;;;;5054992;28;20048;-71
2022/06/11 08:45:02;;;;;;;14.15;3.58;;;;;;;;;;5071034;28;20361;-71
2022/06/11 08:47:31;;;;;;;19.45;4.03;;;;;;;;;;5060102;28;20495;-71
2022/06/11 08:50:00;;;;;;;12.75;3.83;;;;;;;;;;5055290;28;20536;-71
2022/06/11 08:52:29;;;;;;;14.10;3.60;;;;;;;;;;5048540;28;20065;-71
2022/06/11 08:54:55;;;;;;;14.20;3.35;;;;;;;;;;5052995;28;20071;-71
2022/06/11 08:57:26;;;;;;;15.18;2.95;;;;;;;;;;5066879;28;20044;-71
2022/06/11 08:59:58;;;;;;;10.05;3.10;;;;;;;;;;5062808;28;20017;-71
2022/06/11 09:02:35;;;;;;;15.05;3.55;;;;;;;;;;5072169;28;20484;-72
2022/06/11 09:05:07;;;;;;;15.40;3.35;;;;;;;;;;5047413;28;20400;-72
2022/06/11 09:07:43;;;;;;;18.13;3.75;;;;;;;;;;5064176;28;20031;-72
2022/06/11 09:10:28;;;;;;;12.60;3.42;;;;;;;;;;5065919;28;20029;-72
2022/06/11 09:12:57;;;;;;;14.93;3.35;;;;;;;;;;5036491;28;20040;-71
2022/06/11 09:15:51;;;;;;;12.80;3.60;;;27.40;84.30;;;;;;5031807;28;20075;-69
2022/06/11 09:18:44;;;;;;;17.58;4.75;;;;;;;;;;5040325;28;20017;-69
2022/06/11 09:21:18;;;;;;;13.95;3.40;;;;;;;;;;5025915;28;20021;-69
2022/06/11 09:24:06;;;;;;;14.00;3.35;;;27.80;82.50;;;;;;5037440;28;20033;-69
2022/06/11 09:27:06;;;;;;;20.77;3.08;;;27.20;84.30;;;;;;5063218;28;20059;-72
2022/06/11 09:29:41;;;;;;;12.88;3.67;;;;;;;;;;5037918;28;20059;-72
2022/06/11 09:32:10;;;;;;;11.70;3.22;;;;;;;;;;5070945;28;20452;-72
2022/06/11 09:34:44;;;;;;;14.27;2.85;;;;;;;;;;5050540;28;20039;-72
2022/06/11 09:37:13;;;;;;;19.83;4.45;;;;;;;;;;5061756;28;20396;-72
2022/06/11 09:39:39;;;;;;;14.77;3.15;;;;;;;;;;5092984;28;20077;-71
2022/06/11 09:42:06;;;;;;;15.13;3.38;;;;;;;;;;5080018;28;20031;-72
2022/06/11 09:44:42;;;;;;;19.13;4.03;;;;;;;;;;5062080;28;20029;-73
2022/06/11 09:47:17;;;;;;;14.02;3.33;;;27.20;92.20;;;;;;5067216;28;20068;-70
2022/06/11 09:50:10;;;;;;;13.77;3.17;;;27.30;78.80;;;;;;5079723;28;20032;-69
2022/06/11 09:52:42;;;;;;;12.40;3.70;;;27.00;84.30;;;;;;5050443;28;20027;-72
2022/06/11 09:55:17;;;;;;;13.52;2.95;;;27.20;87.40;;;;;;5044507;28;20045;-71
2022/06/11 09:57:43;;;;;;;15.77;3.00;;;;;;;;;;5045074;28;20509;-74
2022/06/11 10:00:36;;;;;;;13.30;3.28;;;;;;;;;;5035654;28;20075;-72
2022/06/11 10:03:15;;;;;;;9.15;2.53;;;27.60;80.00;;;;;;5035872;28;20036;-72
2022/06/11 10:05:47;;;;;;;15.10;3.17;;;;;;;;;;5025501;28;21388;-72
2022/06/11 10:08:40;;;;;;;14.07;3.83;;;;;;;;;;5039507;28;20036;-72
2022/06/11 10:11:11;;;;;;;10.07;3.03;;;;;;;;;;5010649;28;20062;-72
2022/06/11 10:13:44;;;;;;;12.88;3.15;;;;;;;;;;5035560;28;20043;-72
2022/06/11 10:16:20;;;;;;;12.50;3.60;;;;;;;;;;5022477;28;20551;-72
2022/06/11 10:18:48;;;;;;;14.20;3.95;;;;;;;;;;5037632;28;20076;-72
2022/06/11 10:21:19;;;;;;;13.57;3.33;;;;;;;;;;5034621;28;20110;-72
2022/06/11 10:24:02;;;;;;;16.90;3.92;;;26.70;87.30;;;;;;5041308;28;20036;-72
2022/06/11 10:26:37;;;;;;;12.73;3.47;;;26.80;86.80;;;;;;5040446;28;20031;-72
2022/06/11 10:29:14;;;;;;;14.13;3.47;;;;;;;;;;5047688;28;20038;-72
2022/06/11 10:31:54;;;;;;;12.85;3.28;;;;;;;;;;5046378;28;20089;-72
2022/06/11 10:34:22;;;;;;;17.13;3.88;;;;;;;;;;5046194;28;20083;-72
2022/06/11 10:36:54;;;;;;;15.63;3.58;;;27.40;80.70;;;;;;5050097;28;20028;-72
2022/06/11 10:39:35;;;;;;;10.50;3.20;;;;;;;;;;5050080;28;20056;-70
2022/06/11 10:42:05;;;;;;;13.05;3.72;;;;;;;;;;5031925;28;20028;-70
2022/06/11 10:44:49;;;;;;;14.05;4.05;;;;;;;;;;5045088;28;20050;-71
2022/06/11 10:47:18;;;;;;;15.77;3.00;;;;;;;;;;5044396;28;20107;-70
2022/06/11 10:49:45;;;;;;;14.77;3.42;;;;;;;;;;5050225;28;20123;-73
2022/06/11 10:52:20;;;;;;;13.82;3.33;;;;;;;;;;5053181;28;20036;-73
2022/06/11 10:54:46;;;;;;;13.93;2.85;;;;;;;;;;5054382;28;20060;-73
2022/06/11 10:57:25;;;;;;;11.05;2.88;;;;;;;;;;5055647;28;20095;-72
2022/06/11 10:59:59;;;;;;;11.13;3.13;;;;;;;;;;5060511;28;20066;-73
2022/06/11 11:02:40;;;;;;;12.85;3.30;;;27.30;85.30;;;;;;5045888;28;20060;-72
2022/06/11 11:05:09;;;;;;;13.60;2.88;;;;;;;;;;5055514;28;20039;-72
2022/06/11 11:07:58;;;;;;;13.40;2.85;;;26.90;85.90;;;;;;5074085;28;20039;-72
2022/06/11 11:10:36;;;;;;;13.77;2.47;;;;;;;;;;5051160;28;20121;-72
2022/06/11 11:13:21;;;;;;;13.60;3.15;;;;;;;;;;5067911;28;20028;-72
2022/06/11 11:15:55;;;;;;;12.60;2.78;;;;;;;;;;5063245;28;20134;-74
2022/06/11 11:18:27;;;;;;;17.45;9.25;;;26.50;87.10;;;;;;5055561;28;20502;-74
2022/06/11 11:20:56;;;;;;;9.63;2.45;;;;;;;;;;5060364;28;20496;-74
2022/06/11 11:23:29;;;;;;;11.10;2.85;;;;;;;;;;5052353;28;20031;-75
2022/06/11 11:26:20;;;;;;;11.80;3.22;;;27.00;87.00;;;;;;5050047;28;20037;-75
2022/06/11 11:28:53;;;;;;;9.75;2.55;;;;;;;;;;5040992;28;20070;-77
2022/06/11 11:31:22;;;;;;;10.23;2.45;;;;;;;;;;5056393;28;20139;-76
2022/06/11 11:34:03;;;;;;;10.90;2.33;;;26.70;86.50;;;;;;5060380;28;20041;-76
2022/06/11 11:36:30;;;;;;;12.23;3.28;;;;;;;;;;5063487;28;20120;-76
2022/06/11 11:39:19;;;;;;;8.57;3.10;;;;;;;;;;5059345;28;20025;-75
2022/06/11 11:41:48;;;;;;;11.52;2.35;;;;;;;;;;5050191;28;20076;-76
2022/06/11 11:44:18;;;;;;;10.73;2.15;;;;;;;;;;5057960;28;20039;-76
2022/06/11 11:46:48;;;;;;;13.30;2.28;;;26.60;84.00;;;;;;5055691;28;20064;-76
2022/06/11 11:49:27;;;;;;;14.18;2.42;;;;;;;;;;5051080;28;20060;-75
2022/06/11 11:52:00;;;;;;;10.35;2.38;;;26.50;84.50;;;;;;5058236;28;20136;-79
2022/06/11 11:54:27;;;;;;;10.38;2.22;;;26.50;87.90;;;;;;5039587;28;20032;-80
2022/06/11 11:57:05;;;;;;;9.75;2.03;;;26.40;87.40;;;;;;5035321;28;20143;-78
2022/06/11 11:59:51;;;;;;;10.93;1.95;;;;;;;;;;5055768;28;20043;-77
2022/06/11 12:02:20;;;;;;;9.32;2.15;;;;;;;;;;5053378;28;20074;-77
2022/06/11 12:04:57;;;;;;;9.02;2.47;;;26.50;86.90;;;;;;5056700;28;20107;-77
2022/06/11 12:07:29;;;;;;;7.93;2.20;;;;;;;;;;5045677;28;20037;-77
2022/06/11 12:09:58;;;;;;;13.43;2.30;;;;;;;;;;5052987;28;20028;-77
2022/06/11 12:12:33;;;;;;;8.80;2.50;;;;;;;;;;5057240;28;20021;-77
2022/06/11 12:15:00;;;;;;;15.05;2.33;;;;;;;;;;5054960;28;20052;-76
2022/06/11 12:17:50;;;;;;;11.50;2.55;;;26.60;88.20;;;;;;5057672;28;20036;-76
2022/06/11 12:20:28;;;;;;;9.98;2.58;;;;;;;;;;5059275;28;20095;-76
2022/06/11 12:22:58;;;;;;;9.90;2.65;;;;;;;;;;5054431;28;20032;-77
2022/06/11 12:25:29;;;;;;;12.48;2.70;;;;;;;;;;5030078;28;21880;-71
2022/06/11 12:27:55;;;;;;;9.15;2.15;;;;;;;;;;5059123;28;20111;-70
2022/06/11 12:30:26;;;;;;;10.95;2.15;;;;;;;;;;5040484;28;20083;-70
2022/06/11 12:32:52;;;;;;;17.42;3.60;;;;;;;;;;5053983;28;20087;-71
2022/06/11 12:35:23;;;;;;;7.97;2.42;;;;;;;;;;5056998;28;20060;-71
2022/06/11 12:37:49;;;;;;;10.90;2.47;;;;;;;;;;5069501;28;20111;-71
2022/06/11 12:40:43;;;;;;;10.57;2.17;;;26.10;87.30;;;;;;5057953;28;21029;-71
2022/06/11 12:43:08;;;;;;;13.57;3.33;;;;;;;;;;5054845;28;20039;-70
2022/06/11 12:45:46;;;;;;;11.88;2.47;;;;;;;;;;5055194;28;20149;-70
2022/06/11 12:48:18;;;;;;;12.55;3.40;;;;;;;;;;5058906;28;20114;-71
2022/06/11 12:51:01;;;;;;;13.30;2.28;;;;;;;;;;5057298;28;20044;-71
2022/06/11 12:53:46;;;;;;;8.98;2.13;;;;;;;;;;5036554;28;20468;-71
2022/06/11 12:56:49;;;;;;;13.18;4.75;;;26.30;85.50;;;;;;5056196;28;20024;-70
2022/06/11 12:59:40;;;;;;;13.00;2.92;;;26.20;85.60;;;;;;5050861;28;20028;-72
2022/06/11 13:02:36;;;;;;;10.55;2.40;;;26.30;83.80;;;;;;5064815;28;20365;-71
2022/06/11 13:05:12;;;;;;;11.20;2.72;;;;;;;;;;5076654;28;20036;-71
2022/06/11 13:08:02;;;;;;;15.07;2.50;;;26.60;84.10;;;;;;5071614;28;20052;-71
2022/06/11 13:10:39;;;;;;;14.90;4.50;;;;;;;;;;5062393;28;20032;-71
2022/06/11 13:13:21;;;;;;;19.77;3.60;;;;;;;;;;5065469;28;20075;-71
2022/06/11 13:15:56;;;;;;;12.35;3.60;;;;;;;;;;5072451;28;20426;-72
2022/06/11 13:18:35;;;;;;;13.90;3.00;;;26.30;83.70;;;;;;5069564;28;20031;-71
2022/06/11 13:21:07;;;;;;;13.98;3.38;;;;;;;;;;5075193;28;20036;-72
2022/06/11 13:23:44;;;;;;;10.90;2.90;;;;;;;;;;5071051;28;20025;-72
2022/06/11 13:26:25;;;;;;;12.85;2.92;;;25.70;88.20;;;;;;5061087;28;20036;-71
2022/06/11 13:28:54;;;;;;;16.27;2.88;;;;;;;;;;5067786;28;20073;-72
2022/06/11 13:31:34;;;;;;;12.77;2.53;;;;;;;;;;5069944;28;20028;-72
2022/06/11 13:34:00;;;;;;;16.40;4.50;;;;;;;;;;5076830;28;20032;-71
2022/06/11 13:36:26;;;;;;;22.08;7.75;;;;;;;;;;5062855;28;20036;-72
2022/06/11 13:38:59;;;;;;;12.90;2.85;;;;;;;;;;5067574;28;20482;-72
2022/06/11 13:41:25;;;;;;;13.20;3.13;;;;;;;;;;5081275;28;20059;-73
2022/06/11 13:43:51;;;;;;;17.35;3.30;;;;;;;;;;5072690;28;20067;-73
2022/06/11 13:46:17;;;;;;;24.38;3.38;;;;;;;;;;5074958;28;20168;-72
2022/06/11 13:48:49;;;;;;;19.30;3.75;;;;;;;;;;5071403;28;20062;-72
2022/06/11 13:51:22;;;;;;;15.32;3.58;;;;;;;;;;5075432;28;20024;-72
2022/06/11 13:56:52;;;;;;;14.85;3.50;;;;;;;;;;5075586;28;20048;-75
2022/06/11 13:59:18;;;;;;;51.67;41.72;;;;;;;;;;5049789;28;20037;-74
2022/06/11 14:02:16;;;;;;;14.93;3.28;;;;;;;;;;5081939;28;20084;-74
2022/06/11 14:04:44;;;;;;;16.83;3.20;;;25.40;91.30;;;;;;4993765;28;20041;-72
2022/06/11 14:07:11;;;;;;;16.05;3.25;;;;;;;;;;5056020;28;20028;-72
2022/06/11 14:12:44;;;;;;;16.67;4.22;;;;;;;;;;5061353;28;20078;-72
2022/06/11 14:15:30;;;;;;;15.82;3.53;;;;;;;;;;5075018;28;20439;-72
2022/06/11 14:18:05;;;;;;;17.80;3.58;;;;;;;;;;5061716;28;20045;-73
2022/06/11 14:20:31;;;;;;;19.10;4.28;;;;;;;;;;5077899;28;20093;-72
2022/06/11 14:23:23;;;;;;;16.83;3.65;;;;;;;;;;5072603;28;20036;-72
2022/06/11 14:25:53;;;;;;;13.60;3.58;;;;;;;;;;5073107;28;20653;-72
2022/06/11 14:28:19;;;;;;;16.85;4.32;;;;;;;;;;5044516;28;20918;-72
2022/06/11 14:30:45;;;;;;;13.35;3.10;;;;;;;;;;5063215;28;20017;-71
2022/06/11 14:33:13;;;;;;;16.90;3.58;;;;;;;;;;5067690;28;20072;-70
2022/06/11 14:35:53;;;;;;;21.17;3.92;;;25.90;90.20;;;;;;5062521;28;20430;-70
2022/06/11 14:38:24;;;;;;;16.05;3.65;;;;;;;;;;5059046;28;20020;-70
2022/06/11 14:41:09;;;;;;;13.10;3.50;;;25.40;91.10;;;;;;5056975;28;20425;-71
2022/06/11 14:43:53;;;;;;;18.63;4.78;;;25.10;90.10;;;;;;5065372;28;20036;-71
2022/06/11 14:46:42;;;;;;;19.63;4.50;;;;;;;;;;5077587;28;20495;-72
2022/06/11 14:49:24;;;;;;;15.13;3.55;;;;;;;;;;5056401;28;20052;-71